Overview Statistics Trail Chart Weather Telemetry Raw packets
 

This is the latest recevied weather packets stored in our database for station/object OE3MHU-12. If no packets are shown the sender has not sent any weather packets the latest 10 day(s).

<< 9 10 11 12 13 14 15 >>
Time Temp. Humidity Pressure Rain* Wind** Luminosity Snow
1788091992 29.44° C 43% 1014.7 hPa 0 mm - - -
1788090192 29.44° C 44% 1014.7 hPa 0 mm - - -
1788088392 30° C 44% 1015 hPa 0 mm - - -
1788086592 29.44° C 43% 1015.1 hPa 0 mm - - -
1788085321 28.33° C 46% 1015.4 hPa 0 mm - - -
1788084792 28.33° C 46% 1015.4 hPa 0 mm - - -
1788082992 27.78° C 47% 1015.7 hPa 0 mm - - -
1788081192 26.11° C 49% 1015.9 hPa 0 mm - - -
1788079392 27.22° C 49% 1015.9 hPa 0 mm - - -
1788077592 26.11° C 52% 1016 hPa 0 mm - - -
1788072193 18.33° C 80% 1015.8 hPa 0 mm - - -
1788070393 15.56° C 89% 1015.9 hPa 0 mm - - -
1788066798 12.78° C 88% 1015.6 hPa 0 mm - - -
1788066793 12.78° C 88% 1015.6 hPa 0 mm - - -
1788065269 12.22° C 87% 1015.5 hPa 0 mm - - -
1788064993 12.22° C 87% 1015.5 hPa 0 mm - - -
1788063193 12.22° C 87% 1015.4 hPa 0 mm - - -
1788061393 12.22° C 87% 1015.4 hPa 0 mm - - -
1788059593 11.67° C 87% 1015.4 hPa 0 mm - - -
1788057793 11.67° C 87% 1015.3 hPa 0 mm - - -
1788055993 11.67° C 87% 1015.3 hPa 0 mm - - -
1788054194 11.67° C 86% 1015.3 hPa 0 mm - - -
1788050597 12.22° C 85% 1015.5 hPa 0 mm - - -
1788048795 12.22° C 84% 1015.4 hPa 0 mm - - -
1788046994 12.78° C 84% 1015.4 hPa 0 mm - - -

* Rain latest hour (hover to see other rain measurements)
** Current wind speed in m/s (hover to see current wind gust speed)